createdAt,value
2023-12-30T00:02:24.829Z,8.03
2023-12-30T00:04:51.625Z,8.80
2023-12-30T00:07:18.466Z,8.65
2023-12-30T00:09:45.378Z,8.20
2023-12-30T00:12:12.233Z,9.13
2023-12-30T00:14:39.074Z,8.90
2023-12-30T00:17:05.861Z,9.05
2023-12-30T00:19:33.424Z,8.68
2023-12-30T00:22:00.324Z,8.48
2023-12-30T00:24:27.292Z,8.55
2023-12-30T00:26:54.022Z,8.50
2023-12-30T00:29:20.825Z,8.63
2023-12-30T00:31:47.666Z,8.88
2023-12-30T00:34:14.576Z,9.10
2023-12-30T00:36:43.509Z,9.25
2023-12-30T00:39:10.392Z,9.47
2023-12-30T00:41:38.258Z,9.05
2023-12-30T00:44:05.744Z,8.70
2023-12-30T00:46:32.781Z,9.57
2023-12-30T00:48:59.759Z,9.30
2023-12-30T00:51:27.221Z,8.57
2023-12-30T00:53:53.996Z,10.07
2023-12-30T00:56:20.869Z,9.18
2023-12-30T00:58:47.877Z,8.98
2023-12-30T01:01:14.867Z,9.68
2023-12-30T01:03:42.236Z,9.43
2023-12-30T01:06:09.393Z,9.73
2023-12-30T01:08:36.921Z,9.73
2023-12-30T01:11:04.004Z,9.15
2023-12-30T01:13:31.262Z,9.32
2023-12-30T01:15:58.363Z,9.93
2023-12-30T01:18:25.350Z,9.35
2023-12-30T01:20:53.186Z,9.13
2023-12-30T01:23:20.011Z,9.57
2023-12-30T01:25:46.904Z,9.85
2023-12-30T01:28:13.875Z,10.70
2023-12-30T01:30:41.330Z,9.75
2023-12-30T01:33:08.893Z,9.30
2023-12-30T01:35:36.548Z,9.63
2023-12-30T01:38:06.146Z,9.68
2023-12-30T01:40:34.220Z,9.53
2023-12-30T01:43:01.568Z,9.85
2023-12-30T01:45:28.852Z,9.95
2023-12-30T01:47:55.941Z,9.38
2023-12-30T01:50:22.939Z,9.23
2023-12-30T01:52:51.542Z,9.20
2023-12-30T01:55:20.021Z,9.15
2023-12-30T01:57:47.065Z,9.25
2023-12-30T02:00:20.519Z,9.00
2023-12-30T02:02:49.068Z,8.73
2023-12-30T02:05:16.938Z,8.83
2023-12-30T02:07:46.372Z,8.68
2023-12-30T02:10:14.890Z,8.13
2023-12-30T02:12:42.391Z,8.45
2023-12-30T02:15:17.461Z,8.40
2023-12-30T02:17:45.398Z,8.17
2023-12-30T02:20:12.541Z,7.88
2023-12-30T02:22:46.100Z,7.97
2023-12-30T02:25:13.616Z,7.85
2023-12-30T02:27:42.987Z,8.15
2023-12-30T02:30:11.565Z,8.17
2023-12-30T02:32:38.532Z,7.90
2023-12-30T02:35:05.797Z,8.50
2023-12-30T02:37:32.714Z,7.55
2023-12-30T02:39:59.667Z,7.68
2023-12-30T02:42:26.480Z,7.30
2023-12-30T02:44:53.490Z,7.65
2023-12-30T02:47:20.299Z,7.20
2023-12-30T02:49:47.187Z,7.10
2023-12-30T02:52:14.119Z,7.07
2023-12-30T02:54:40.936Z,6.67
2023-12-30T02:57:07.817Z,6.55
2023-12-30T02:59:34.619Z,6.10
2023-12-30T03:02:01.729Z,5.85
2023-12-30T03:04:28.730Z,3.80
2023-12-30T03:06:55.692Z,1.90
2023-12-30T03:09:22.565Z,0.82
2023-12-30T03:11:49.521Z,1.70
2023-12-30T03:14:16.409Z,0.90
2023-12-30T03:16:43.222Z,0.70
2023-12-30T03:19:10.146Z,0.00
2023-12-30T03:21:37.212Z,0.00
2023-12-30T03:24:04.205Z,0.00
2023-12-30T03:26:30.982Z,0.00
2023-12-30T03:28:57.825Z,0.00
2023-12-30T03:31:26.123Z,0.10
2023-12-30T03:33:53.675Z,0.00
2023-12-30T03:36:20.731Z,0.00
2023-12-30T03:38:48.945Z,0.00
2023-12-30T03:41:16.729Z,0.00
2023-12-30T03:43:43.836Z,0.00
2023-12-30T03:46:10.802Z,0.00
2023-12-30T03:48:38.365Z,0.00
2023-12-30T03:51:05.936Z,0.00
2023-12-30T03:53:34.375Z,0.00
2023-12-30T03:56:01.608Z,0.00
2023-12-30T03:58:28.848Z,0.00
2023-12-30T04:00:56.070Z,0.00
2023-12-30T04:03:23.188Z,0.00
2023-12-30T04:05:50.154Z,0.00
2023-12-30T04:08:16.994Z,0.00
2023-12-30T04:10:43.909Z,0.00
2023-12-30T04:13:11.196Z,0.00
2023-12-30T04:15:38.639Z,0.00
2023-12-30T04:18:06.362Z,0.00
2023-12-30T04:20:33.519Z,0.00
2023-12-30T04:23:00.980Z,0.00
2023-12-30T04:25:28.353Z,0.00
2023-12-30T04:27:55.349Z,0.00
2023-12-30T04:30:22.380Z,0.00
2023-12-30T04:32:49.527Z,0.00
2023-12-30T04:35:16.492Z,0.00
2023-12-30T04:37:43.279Z,0.00
2023-12-30T04:40:10.521Z,0.00
2023-12-30T04:42:37.402Z,0.00
2023-12-30T04:45:04.919Z,0.00
2023-12-30T04:47:31.786Z,0.00
2023-12-30T04:49:59.200Z,0.00
2023-12-30T04:52:26.494Z,0.00
2023-12-30T04:54:53.392Z,0.00
2023-12-30T04:57:20.260Z,0.00
2023-12-30T04:59:47.081Z,0.20
2023-12-30T05:02:14.008Z,0.00
2023-12-30T05:04:43.978Z,0.00
2023-12-30T05:07:11.114Z,0.00
2023-12-30T05:09:37.929Z,0.00
2023-12-30T05:12:05.035Z,0.00
2023-12-30T05:14:31.850Z,0.00
2023-12-30T05:16:58.835Z,0.00
2023-12-30T05:19:25.981Z,0.00
2023-12-30T05:21:53.084Z,0.00
2023-12-30T05:24:20.262Z,0.00
2023-12-30T05:26:47.248Z,0.00
2023-12-30T05:29:14.103Z,0.00
2023-12-30T05:31:41.318Z,0.00
2023-12-30T05:34:08.409Z,0.00
2023-12-30T05:36:37.785Z,0.63
2023-12-30T05:39:04.996Z,0.00
2023-12-30T05:41:32.235Z,0.00
2023-12-30T05:43:59.030Z,0.08
2023-12-30T05:46:25.897Z,0.00
2023-12-30T05:48:52.895Z,0.00
2023-12-30T05:51:21.782Z,0.00
2023-12-30T05:53:50.822Z,0.00
2023-12-30T05:56:25.286Z,0.00
2023-12-30T05:58:54.169Z,0.00
2023-12-30T06:01:21.213Z,0.00
2023-12-30T06:03:48.503Z,0.00
2023-12-30T06:06:15.629Z,0.00
2023-12-30T06:08:42.734Z,0.00
2023-12-30T06:11:09.630Z,0.00
2023-12-30T06:13:36.675Z,0.00
2023-12-30T06:16:03.838Z,0.00
2023-12-30T06:18:30.695Z,0.00
2023-12-30T06:20:58.326Z,0.00
2023-12-30T06:23:25.286Z,0.00
2023-12-30T06:25:52.210Z,0.00
2023-12-30T06:28:19.035Z,0.00
2023-12-30T06:30:45.839Z,0.00
2023-12-30T06:33:12.771Z,0.55
2023-12-30T06:35:39.524Z,0.00
2023-12-30T06:38:06.459Z,0.00
2023-12-30T06:40:33.253Z,0.00
2023-12-30T06:43:00.402Z,0.03
2023-12-30T06:45:27.494Z,0.00
2023-12-30T06:47:54.462Z,0.00
2023-12-30T06:50:22.309Z,0.00
2023-12-30T06:52:49.785Z,0.00
2023-12-30T06:55:23.196Z,0.00
2023-12-30T06:57:54.210Z,0.00
2023-12-30T07:00:21.730Z,0.00
2023-12-30T07:02:49.004Z,0.00
2023-12-30T07:05:16.039Z,0.00
2023-12-30T07:07:42.903Z,0.00
2023-12-30T07:10:10.104Z,0.00
2023-12-30T07:12:36.968Z,0.00
2023-12-30T07:15:04.286Z,0.00
2023-12-30T07:17:31.495Z,0.00
2023-12-30T07:19:58.551Z,0.00
2023-12-30T07:22:25.819Z,0.00
2023-12-30T07:24:52.898Z,0.00
2023-12-30T07:27:19.753Z,0.00
2023-12-30T07:29:46.545Z,0.00
2023-12-30T07:32:13.344Z,0.00
2023-12-30T07:34:40.160Z,0.00
2023-12-30T07:37:07.081Z,0.00
2023-12-30T07:39:34.114Z,0.00
2023-12-30T07:42:01.087Z,0.00
2023-12-30T07:44:29.114Z,0.00
2023-12-30T07:46:56.083Z,0.00
2023-12-30T07:49:23.040Z,0.00
2023-12-30T07:51:50.199Z,0.00
2023-12-30T07:54:17.032Z,0.00
2023-12-30T07:56:43.796Z,0.00
2023-12-30T07:59:12.409Z,0.00
2023-12-30T08:01:45.750Z,0.00
2023-12-30T08:04:13.495Z,0.00
2023-12-30T08:06:41.432Z,0.00
2023-12-30T08:09:09.278Z,0.00
2023-12-30T08:11:46.216Z,0.00
2023-12-30T08:14:21.752Z,0.00
2023-12-30T08:16:48.755Z,0.00
2023-12-30T08:19:15.871Z,0.00
2023-12-30T08:21:42.792Z,0.00
2023-12-30T08:24:09.566Z,0.00
2023-12-30T08:26:37.134Z,0.00
2023-12-30T08:29:03.975Z,0.00
2023-12-30T08:31:34.748Z,0.00
2023-12-30T08:34:01.768Z,0.00
2023-12-30T08:36:28.597Z,0.00
2023-12-30T08:38:55.786Z,0.00
2023-12-30T08:41:22.652Z,0.00
2023-12-30T08:43:49.519Z,0.00
2023-12-30T08:46:16.453Z,0.00
2023-12-30T08:48:43.420Z,0.00
2023-12-30T08:51:13.050Z,0.00
2023-12-30T08:53:39.864Z,0.00
2023-12-30T08:56:07.604Z,0.00
2023-12-30T08:58:34.460Z,0.00
2023-12-30T09:01:01.468Z,0.00
2023-12-30T09:03:28.450Z,0.00
2023-12-30T09:05:55.247Z,0.00
2023-12-30T09:08:22.219Z,0.00
2023-12-30T09:10:49.152Z,0.10
2023-12-30T09:13:16.027Z,0.00
2023-12-30T09:15:42.840Z,0.00
2023-12-30T09:18:14.878Z,0.00
2023-12-30T09:20:42.823Z,0.00
2023-12-30T09:23:09.648Z,0.00
2023-12-30T09:25:36.788Z,0.00
2023-12-30T09:28:04.032Z,0.00
2023-12-30T09:30:30.900Z,0.00
2023-12-30T09:32:57.845Z,0.00
2023-12-30T09:35:24.791Z,0.00
2023-12-30T09:37:51.654Z,0.00
2023-12-30T09:40:19.244Z,0.00
2023-12-30T09:42:50.329Z,0.00
2023-12-30T09:45:17.435Z,0.00
2023-12-30T09:47:46.386Z,0.00
2023-12-30T09:50:13.310Z,0.00
2023-12-30T09:52:40.317Z,0.00
2023-12-30T09:55:07.510Z,0.00
2023-12-30T09:57:35.012Z,0.00
2023-12-30T10:00:03.038Z,0.00
2023-12-30T10:02:32.665Z,0.10
2023-12-30T10:05:00.580Z,0.00
2023-12-30T10:07:27.845Z,0.00
2023-12-30T10:09:54.740Z,0.00
2023-12-30T10:12:21.629Z,0.00
2023-12-30T10:14:48.872Z,0.00
2023-12-30T10:17:15.777Z,0.00
2023-12-30T10:19:42.600Z,0.00
2023-12-30T10:22:09.867Z,0.10
2023-12-30T10:24:36.661Z,0.00
2023-12-30T10:27:05.182Z,0.00
2023-12-30T10:29:42.727Z,0.00
2023-12-30T10:32:21.913Z,0.00
2023-12-30T10:34:49.414Z,0.00
2023-12-30T10:37:17.445Z,0.00
2023-12-30T10:39:46.842Z,0.00
2023-12-30T10:42:14.070Z,0.00
2023-12-30T10:44:40.903Z,0.00
2023-12-30T10:47:10.753Z,0.00
2023-12-30T10:49:40.248Z,0.00
2023-12-30T10:52:11.863Z,0.00
2023-12-30T10:54:42.465Z,0.00
2023-12-30T10:57:16.076Z,0.00
2023-12-30T10:59:44.067Z,0.00
2023-12-30T11:02:11.538Z,0.00
2023-12-30T11:04:38.708Z,0.00
2023-12-30T11:07:08.280Z,0.00
2023-12-30T11:09:37.262Z,0.00
2023-12-30T11:12:04.384Z,0.00
2023-12-30T11:14:31.364Z,0.00
2023-12-30T11:16:58.325Z,0.00
2023-12-30T11:19:33.226Z,0.00
2023-12-30T11:22:06.560Z,0.00
2023-12-30T11:24:34.934Z,0.00
2023-12-30T11:27:01.825Z,0.00
2023-12-30T11:29:29.806Z,0.00
2023-12-30T11:31:58.401Z,0.00
2023-12-30T11:34:26.256Z,0.00
2023-12-30T11:36:54.985Z,0.00
2023-12-30T11:39:27.249Z,0.00
2023-12-30T11:41:54.108Z,0.00
2023-12-30T11:44:21.182Z,0.00
2023-12-30T11:46:48.496Z,0.00
2023-12-30T11:49:22.453Z,0.00
2023-12-30T11:51:50.297Z,0.00
2023-12-30T11:54:17.248Z,0.00
2023-12-30T11:56:44.747Z,0.00
2023-12-30T11:59:12.566Z,0.00
2023-12-30T12:01:39.411Z,0.00
2023-12-30T12:04:06.302Z,0.00
2023-12-30T12:06:33.244Z,0.00
2023-12-30T12:09:02.456Z,0.00
2023-12-30T12:11:29.259Z,0.00
2023-12-30T12:13:57.668Z,0.00
2023-12-30T12:16:25.316Z,0.00
2023-12-30T12:18:52.358Z,0.00
2023-12-30T12:21:19.279Z,0.00
2023-12-30T12:23:46.611Z,0.00
2023-12-30T12:26:17.279Z,0.00
2023-12-30T12:28:44.188Z,0.03
2023-12-30T12:31:14.405Z,0.00
2023-12-30T12:33:41.384Z,0.00
2023-12-30T12:36:08.432Z,0.00
2023-12-30T12:38:35.304Z,0.00
2023-12-30T12:41:02.084Z,0.00
2023-12-30T12:43:29.001Z,0.00
2023-12-30T12:45:55.957Z,0.00
2023-12-30T12:48:23.184Z,0.00
2023-12-30T12:50:50.044Z,0.00
2023-12-30T12:53:16.892Z,0.00
2023-12-30T12:55:43.695Z,0.03
2023-12-30T12:58:10.587Z,0.00
2023-12-30T13:00:37.525Z,0.00
2023-12-30T13:03:05.303Z,0.00
2023-12-30T13:05:32.677Z,0.00
2023-12-30T13:07:59.569Z,0.10
2023-12-30T13:10:26.495Z,0.00
2023-12-30T13:12:53.414Z,0.00
2023-12-30T13:15:20.294Z,0.00
2023-12-30T13:17:47.316Z,0.00
2023-12-30T13:20:14.179Z,0.00
2023-12-30T13:22:41.013Z,0.00
2023-12-30T13:25:08.253Z,0.00
2023-12-30T13:27:35.173Z,0.00
2023-12-30T13:32:53.295Z,0.00
2023-12-30T13:35:20.247Z,0.00
2023-12-30T13:37:47.135Z,0.00
2023-12-30T13:40:14.211Z,0.00
2023-12-30T13:42:42.029Z,0.00
2023-12-30T13:45:09.232Z,0.00
2023-12-30T13:47:36.097Z,0.00
2023-12-30T13:50:03.279Z,0.00
2023-12-30T13:52:30.474Z,0.00
2023-12-30T13:54:57.346Z,0.00
2023-12-30T13:57:24.200Z,0.00
2023-12-30T13:59:51.743Z,0.00
2023-12-30T14:02:19.042Z,0.00
2023-12-30T14:04:46.576Z,0.00
2023-12-30T14:07:14.351Z,0.00
2023-12-30T14:09:41.103Z,0.00
2023-12-30T14:12:08.166Z,0.00
2023-12-30T14:14:34.913Z,0.00
2023-12-30T14:17:01.882Z,0.00
2023-12-30T14:19:28.908Z,0.00
2023-12-30T14:21:55.723Z,0.00
2023-12-30T14:24:22.473Z,0.00
2023-12-30T14:26:49.503Z,0.00
2023-12-30T14:29:16.390Z,0.00
2023-12-30T14:31:43.286Z,0.00
2023-12-30T14:34:10.269Z,0.00
2023-12-30T14:36:37.223Z,0.00
2023-12-30T14:39:05.353Z,0.00
2023-12-30T14:41:33.611Z,0.00
2023-12-30T14:44:00.632Z,0.00
2023-12-30T14:46:27.834Z,0.10
2023-12-30T14:48:54.878Z,0.00
2023-12-30T14:51:21.763Z,0.00
2023-12-30T14:53:48.671Z,0.00
2023-12-30T14:56:15.540Z,0.00
2023-12-30T14:58:42.569Z,0.10
2023-12-30T15:01:09.478Z,0.00
2023-12-30T15:03:37.031Z,0.00
2023-12-30T15:06:04.144Z,0.00
2023-12-30T15:08:30.970Z,0.00
2023-12-30T15:10:57.843Z,0.10
2023-12-30T15:13:24.716Z,0.00
2023-12-30T15:15:51.602Z,0.00
2023-12-30T15:18:18.471Z,0.00
2023-12-30T15:20:45.302Z,0.10
2023-12-30T15:23:12.218Z,0.00
2023-12-30T15:25:39.115Z,0.00
2023-12-30T15:28:06.289Z,0.00
2023-12-30T15:30:33.241Z,0.10
2023-12-30T15:33:00.480Z,0.28
2023-12-30T15:35:27.711Z,0.10
2023-12-30T15:37:54.652Z,0.20
2023-12-30T15:40:21.570Z,0.00
2023-12-30T15:42:48.491Z,0.10
2023-12-30T15:45:15.382Z,0.55
2023-12-30T15:47:42.434Z,0.40
2023-12-30T15:50:09.828Z,1.30
2023-12-30T15:52:36.966Z,2.50
2023-12-30T15:55:04.050Z,3.35
2023-12-30T15:57:30.896Z,1.95
2023-12-30T15:59:57.622Z,0.70
2023-12-30T16:02:25.273Z,1.60
2023-12-30T16:04:52.152Z,0.60
2023-12-30T16:07:19.134Z,0.40
2023-12-30T16:09:46.143Z,0.30
2023-12-30T16:12:13.485Z,1.10
2023-12-30T16:14:40.279Z,1.60
2023-12-30T16:17:07.246Z,0.30
2023-12-30T16:19:34.613Z,0.80
2023-12-30T16:22:02.435Z,0.70
2023-12-30T16:24:30.107Z,0.52
2023-12-30T16:26:57.709Z,1.70
2023-12-30T16:29:25.229Z,1.67
2023-12-30T16:31:52.787Z,2.05
2023-12-30T16:34:20.503Z,1.20
2023-12-30T16:36:48.199Z,0.98
2023-12-30T16:39:15.651Z,0.87
2023-12-30T16:41:43.101Z,0.75
2023-12-30T16:44:10.403Z,0.40
2023-12-30T16:46:37.515Z,0.55
2023-12-30T16:49:04.489Z,0.60
2023-12-30T16:51:31.747Z,0.80
2023-12-30T16:53:58.661Z,1.80
2023-12-30T16:56:25.716Z,2.35
2023-12-30T16:58:52.902Z,1.52
2023-12-30T17:01:20.052Z,1.45
2023-12-30T17:03:47.191Z,1.27
2023-12-30T17:06:14.509Z,1.15
2023-12-30T17:08:41.564Z,0.90
2023-12-30T17:11:08.558Z,1.23
2023-12-30T17:13:42.897Z,1.58
2023-12-30T17:16:13.643Z,1.40
2023-12-30T17:18:40.527Z,1.20
2023-12-30T17:21:07.467Z,1.48
2023-12-30T17:23:34.985Z,1.77
2023-12-30T17:26:01.932Z,2.05
2023-12-30T17:28:28.843Z,3.20
2023-12-30T17:30:55.891Z,3.17
2023-12-30T17:33:22.853Z,3.75
2023-12-30T17:35:50.256Z,2.72
2023-12-30T17:38:17.208Z,2.75
2023-12-30T17:40:44.093Z,2.60
2023-12-30T17:43:11.019Z,3.40
2023-12-30T17:45:37.845Z,3.70
2023-12-30T17:48:05.196Z,3.20
2023-12-30T17:50:32.008Z,3.70
2023-12-30T17:52:59.013Z,3.40
2023-12-30T17:55:26.021Z,3.78
2023-12-30T17:57:53.045Z,3.03
2023-12-30T18:00:20.185Z,3.20
2023-12-30T18:02:47.242Z,3.28
2023-12-30T18:05:14.594Z,2.87
2023-12-30T18:07:41.883Z,2.30
2023-12-30T18:10:09.240Z,2.55
2023-12-30T18:12:36.372Z,2.30
2023-12-30T18:15:04.773Z,2.10
2023-12-30T18:17:32.847Z,2.03
2023-12-30T18:20:00.620Z,1.88
2023-12-30T18:22:28.156Z,2.10
2023-12-30T18:24:55.380Z,1.73
2023-12-30T18:27:22.581Z,1.73
2023-12-30T18:29:49.942Z,1.60
2023-12-30T18:32:17.146Z,1.65
2023-12-30T18:34:44.466Z,1.40
2023-12-30T18:37:11.683Z,1.33
2023-12-30T18:39:38.644Z,1.63
2023-12-30T18:42:05.916Z,1.40
2023-12-30T18:44:33.036Z,1.30
2023-12-30T18:47:00.373Z,1.00
2023-12-30T18:49:27.537Z,1.60
2023-12-30T18:51:54.875Z,1.20
2023-12-30T18:54:22.197Z,1.20
2023-12-30T18:56:49.669Z,1.10
2023-12-30T18:59:16.926Z,1.02
2023-12-30T19:01:44.151Z,0.98
2023-12-30T19:04:12.447Z,1.20
2023-12-30T19:06:39.889Z,1.90
2023-12-30T19:09:07.569Z,2.53
2023-12-30T19:11:34.925Z,2.80
2023-12-30T19:14:02.989Z,3.00
2023-12-30T19:16:29.948Z,3.05
2023-12-30T19:18:57.358Z,3.00
2023-12-30T19:21:24.916Z,3.53
2023-12-30T19:23:52.299Z,2.70
2023-12-30T19:26:19.286Z,2.17
2023-12-30T19:28:46.306Z,2.40
2023-12-30T19:31:13.994Z,2.17
2023-12-30T19:33:41.128Z,4.25
2023-12-30T19:36:09.695Z,2.70
2023-12-30T19:38:37.103Z,2.90
2023-12-30T19:41:04.292Z,2.60
2023-12-30T19:43:31.831Z,15.43
2023-12-30T19:45:59.133Z,9.40
2023-12-30T19:48:26.701Z,4.95
2023-12-30T19:50:54.155Z,4.10
2023-12-30T19:53:21.243Z,4.22
2023-12-30T19:55:48.413Z,2.60
2023-12-30T19:58:15.782Z,2.22
2023-12-30T20:00:43.219Z,2.08
2023-12-30T20:03:10.901Z,2.90
2023-12-30T20:05:38.400Z,3.10
2023-12-30T20:08:06.222Z,3.30
2023-12-30T20:10:33.520Z,3.38
2023-12-30T20:13:00.905Z,3.30
2023-12-30T20:15:28.192Z,2.88
2023-12-30T20:17:55.427Z,2.90
2023-12-30T20:20:24.570Z,11.87
2023-12-30T20:22:52.272Z,7.55
2023-12-30T20:25:19.872Z,4.30
2023-12-30T20:27:47.468Z,3.90
2023-12-30T20:30:15.662Z,5.20
2023-12-30T20:32:44.030Z,5.00
2023-12-30T20:35:11.797Z,5.18
2023-12-30T20:37:39.621Z,5.10
2023-12-30T20:40:09.805Z,5.43
2023-12-30T20:42:37.883Z,4.80
2023-12-30T20:45:06.106Z,5.30
2023-12-30T20:47:34.155Z,5.25
2023-12-30T20:50:02.595Z,5.15
2023-12-30T20:52:30.278Z,4.60
2023-12-30T20:54:58.764Z,4.15
2023-12-30T20:57:26.421Z,4.40
2023-12-30T20:59:55.088Z,4.28
2023-12-30T21:02:22.330Z,3.90
2023-12-30T21:04:51.298Z,3.85
2023-12-30T21:07:18.375Z,4.30
2023-12-30T21:09:45.717Z,4.20
2023-12-30T21:12:12.655Z,3.67
2023-12-30T21:14:39.702Z,4.28
2023-12-30T21:17:06.938Z,3.58
2023-12-30T21:19:34.761Z,4.45
2023-12-30T21:22:02.721Z,4.53
2023-12-30T21:24:29.781Z,5.38
2023-12-30T21:26:56.816Z,4.88
2023-12-30T21:29:24.111Z,4.30
2023-12-30T21:31:54.323Z,4.97
2023-12-30T21:34:21.753Z,4.73
2023-12-30T21:36:48.737Z,5.03
2023-12-30T21:39:17.918Z,5.78
2023-12-30T21:41:44.893Z,6.15
2023-12-30T21:44:13.120Z,6.15
2023-12-30T21:46:47.179Z,6.37
2023-12-30T21:49:14.365Z,6.90
2023-12-30T21:51:45.540Z,6.78
2023-12-30T21:54:14.846Z,6.70
2023-12-30T21:56:48.117Z,6.90
2023-12-30T21:59:17.283Z,6.40
2023-12-30T22:01:44.304Z,7.47
2023-12-30T22:04:11.977Z,6.55
2023-12-30T22:06:39.445Z,6.45
2023-12-30T22:09:06.523Z,6.78
2023-12-30T22:11:33.923Z,6.77
2023-12-30T22:14:00.916Z,7.15
2023-12-30T22:16:27.977Z,7.10
2023-12-30T22:18:55.144Z,7.90
2023-12-30T22:21:22.404Z,8.50
2023-12-30T22:23:49.427Z,6.03
2023-12-30T22:26:19.604Z,7.05
2023-12-30T22:28:47.124Z,5.32
2023-12-30T22:31:14.514Z,5.30
2023-12-30T22:33:41.695Z,4.45
2023-12-30T22:36:09.200Z,4.87
2023-12-30T22:38:36.255Z,5.47
2023-12-30T22:41:03.253Z,5.95
2023-12-30T22:43:30.483Z,5.53
2023-12-30T22:45:58.082Z,5.63
2023-12-30T22:48:25.134Z,5.60
2023-12-30T22:50:53.229Z,5.50
2023-12-30T22:53:20.313Z,6.95
2023-12-30T22:55:47.994Z,5.78
2023-12-30T22:58:15.514Z,5.80
2023-12-30T23:00:42.560Z,5.10
2023-12-30T23:03:09.942Z,5.18
2023-12-30T23:05:36.948Z,5.07
2023-12-30T23:08:04.090Z,8.10
2023-12-30T23:10:31.460Z,7.82
2023-12-30T23:12:58.459Z,5.33
2023-12-30T23:15:25.455Z,6.43
2023-12-30T23:17:52.701Z,7.03
2023-12-30T23:20:19.940Z,6.75
2023-12-30T23:22:46.941Z,5.05
2023-12-30T23:25:14.491Z,5.50
2023-12-30T23:27:41.481Z,5.90
2023-12-30T23:30:08.787Z,6.38
2023-12-30T23:32:35.982Z,7.05
2023-12-30T23:35:04.289Z,6.35
2023-12-30T23:37:32.121Z,6.10
2023-12-30T23:39:59.413Z,6.80
2023-12-30T23:42:27.606Z,7.35
2023-12-30T23:44:54.990Z,8.02
2023-12-30T23:47:21.991Z,8.02
2023-12-30T23:49:49.247Z,7.80
2023-12-30T23:52:16.539Z,7.60
2023-12-30T23:54:43.531Z,8.13
2023-12-30T23:57:10.979Z,6.97
2023-12-30T23:59:39.126Z,6.85
